sensor_id;sensor_type;location;lat;lon;timestamp;P1;durP1;ratioP1;P2;durP2;ratioP2
65463;SDS011;52063;45.110;9.870;2024-01-15T00:00:28;29.60;;;17.97;;
65463;SDS011;52063;45.110;9.870;2024-01-15T00:02:53;28.03;;;17.30;;
65463;SDS011;52063;45.110;9.870;2024-01-15T00:05:19;26.90;;;17.40;;
65463;SDS011;52063;45.110;9.870;2024-01-15T00:07:44;25.13;;;16.70;;
65463;SDS011;52063;45.110;9.870;2024-01-15T00:10:10;26.37;;;17.07;;
65463;SDS011;52063;45.110;9.870;2024-01-15T00:12:35;26.48;;;16.88;;
65463;SDS011;52063;45.110;9.870;2024-01-15T00:15:01;26.77;;;16.93;;
65463;SDS011;52063;45.110;9.870;2024-01-15T00:17:26;27.47;;;17.13;;
65463;SDS011;52063;45.110;9.870;2024-01-15T00:19:52;26.40;;;17.77;;
65463;SDS011;52063;45.110;9.870;2024-01-15T00:22:17;26.70;;;17.27;;
65463;SDS011;52063;45.110;9.870;2024-01-15T00:24:43;27.40;;;17.63;;
65463;SDS011;52063;45.110;9.870;2024-01-15T00:27:08;25.23;;;16.58;;
65463;SDS011;52063;45.110;9.870;2024-01-15T00:29:34;26.63;;;17.60;;
65463;SDS011;52063;45.110;9.870;2024-01-15T00:31:59;26.17;;;17.08;;
65463;SDS011;52063;45.110;9.870;2024-01-15T00:34:25;28.93;;;17.07;;
65463;SDS011;52063;45.110;9.870;2024-01-15T00:36:50;26.60;;;16.70;;
65463;SDS011;52063;45.110;9.870;2024-01-15T00:39:16;25.00;;;15.77;;
65463;SDS011;52063;45.110;9.870;2024-01-15T00:41:41;25.02;;;16.65;;
65463;SDS011;52063;45.110;9.870;2024-01-15T00:44:07;25.80;;;16.53;;
65463;SDS011;52063;45.110;9.870;2024-01-15T00:46:33;25.73;;;16.67;;
65463;SDS011;52063;45.110;9.870;2024-01-15T00:48:58;26.27;;;16.60;;
65463;SDS011;52063;45.110;9.870;2024-01-15T00:51:24;25.43;;;16.93;;
65463;SDS011;52063;45.110;9.870;2024-01-15T00:53:49;27.52;;;16.23;;
65463;SDS011;52063;45.110;9.870;2024-01-15T00:56:14;25.33;;;16.60;;
65463;SDS011;52063;45.110;9.870;2024-01-15T00:58:40;26.03;;;16.17;;
65463;SDS011;52063;45.110;9.870;2024-01-15T01:01:05;27.43;;;16.87;;
65463;SDS011;52063;45.110;9.870;2024-01-15T01:03:31;29.75;;;16.90;;
65463;SDS011;52063;45.110;9.870;2024-01-15T01:05:56;25.07;;;16.07;;
65463;SDS011;52063;45.110;9.870;2024-01-15T01:08:22;28.93;;;16.13;;
65463;SDS011;52063;45.110;9.870;2024-01-15T01:10:47;25.70;;;16.70;;
65463;SDS011;52063;45.110;9.870;2024-01-15T01:13:13;27.10;;;17.15;;
65463;SDS011;52063;45.110;9.870;2024-01-15T01:15:38;25.17;;;16.60;;
65463;SDS011;52063;45.110;9.870;2024-01-15T01:18:04;24.47;;;16.77;;
65463;SDS011;52063;45.110;9.870;2024-01-15T01:20:30;25.67;;;16.35;;
65463;SDS011;52063;45.110;9.870;2024-01-15T01:22:55;24.20;;;16.17;;
65463;SDS011;52063;45.110;9.870;2024-01-15T01:25:21;29.58;;;16.70;;
65463;SDS011;52063;45.110;9.870;2024-01-15T01:27:46;25.87;;;15.93;;
65463;SDS011;52063;45.110;9.870;2024-01-15T01:30:11;24.03;;;15.87;;
65463;SDS011;52063;45.110;9.870;2024-01-15T01:32:40;25.17;;;17.02;;
65463;SDS011;52063;45.110;9.870;2024-01-15T01:35:14;22.57;;;15.03;;
65463;SDS011;52063;45.110;9.870;2024-01-15T01:37:39;23.58;;;15.48;;
65463;SDS011;52063;45.110;9.870;2024-01-15T01:40:05;25.40;;;16.87;;
65463;SDS011;52063;45.110;9.870;2024-01-15T01:42:31;26.13;;;16.30;;
65463;SDS011;52063;45.110;9.870;2024-01-15T01:44:56;22.90;;;15.17;;
65463;SDS011;52063;45.110;9.870;2024-01-15T01:47:22;22.03;;;15.23;;
65463;SDS011;52063;45.110;9.870;2024-01-15T01:49:48;24.58;;;16.33;;
65463;SDS011;52063;45.110;9.870;2024-01-15T01:52:13;26.27;;;16.27;;
65463;SDS011;52063;45.110;9.870;2024-01-15T01:54:39;23.53;;;16.03;;
65463;SDS011;52063;45.110;9.870;2024-01-15T01:57:05;22.73;;;15.70;;
65463;SDS011;52063;45.110;9.870;2024-01-15T01:59:33;22.88;;;15.80;;
65463;SDS011;52063;45.110;9.870;2024-01-15T02:02:00;24.50;;;15.80;;
65463;SDS011;52063;45.110;9.870;2024-01-15T02:04:26;24.45;;;16.10;;
65463;SDS011;52063;45.110;9.870;2024-01-15T02:06:52;23.87;;;16.30;;
65463;SDS011;52063;45.110;9.870;2024-01-15T02:09:18;23.23;;;15.95;;
65463;SDS011;52063;45.110;9.870;2024-01-15T02:11:48;25.73;;;15.82;;
65463;SDS011;52063;45.110;9.870;2024-01-15T02:14:15;21.97;;;15.27;;
65463;SDS011;52063;45.110;9.870;2024-01-15T02:16:41;21.65;;;14.93;;
65463;SDS011;52063;45.110;9.870;2024-01-15T02:19:06;23.27;;;15.83;;
65463;SDS011;52063;45.110;9.870;2024-01-15T02:21:32;22.15;;;15.07;;
65463;SDS011;52063;45.110;9.870;2024-01-15T02:23:57;22.70;;;15.83;;
65463;SDS011;52063;45.110;9.870;2024-01-15T02:26:23;21.23;;;15.55;;
65463;SDS011;52063;45.110;9.870;2024-01-15T02:28:49;23.07;;;15.57;;
65463;SDS011;52063;45.110;9.870;2024-01-15T02:31:15;21.90;;;16.00;;
65463;SDS011;52063;45.110;9.870;2024-01-15T02:33:42;21.40;;;14.93;;
65463;SDS011;52063;45.110;9.870;2024-01-15T02:36:07;22.42;;;15.02;;
65463;SDS011;52063;45.110;9.870;2024-01-15T02:38:33;23.42;;;15.85;;
65463;SDS011;52063;45.110;9.870;2024-01-15T02:40:59;23.13;;;15.90;;
65463;SDS011;52063;45.110;9.870;2024-01-15T02:43:24;23.23;;;16.63;;
65463;SDS011;52063;45.110;9.870;2024-01-15T02:45:50;20.88;;;14.48;;
65463;SDS011;52063;45.110;9.870;2024-01-15T02:48:15;22.97;;;15.30;;
65463;SDS011;52063;45.110;9.870;2024-01-15T02:50:41;24.67;;;15.80;;
65463;SDS011;52063;45.110;9.870;2024-01-15T02:53:06;26.83;;;15.82;;
65463;SDS011;52063;45.110;9.870;2024-01-15T02:55:32;23.10;;;15.60;;
65463;SDS011;52063;45.110;9.870;2024-01-15T02:57:57;22.57;;;15.37;;
65463;SDS011;52063;45.110;9.870;2024-01-15T03:00:23;21.17;;;15.10;;
65463;SDS011;52063;45.110;9.870;2024-01-15T03:02:49;23.75;;;15.70;;
65463;SDS011;52063;45.110;9.870;2024-01-15T03:05:17;25.55;;;15.88;;
65463;SDS011;52063;45.110;9.870;2024-01-15T03:07:48;21.83;;;14.57;;
65463;SDS011;52063;45.110;9.870;2024-01-15T03:10:13;21.40;;;15.23;;
65463;SDS011;52063;45.110;9.870;2024-01-15T03:12:38;21.40;;;15.40;;
65463;SDS011;52063;45.110;9.870;2024-01-15T03:15:04;22.00;;;14.97;;
65463;SDS011;52063;45.110;9.870;2024-01-15T03:17:30;21.92;;;14.40;;
65463;SDS011;52063;45.110;9.870;2024-01-15T03:19:55;22.37;;;16.10;;
65463;SDS011;52063;45.110;9.870;2024-01-15T03:22:21;21.80;;;15.20;;
65463;SDS011;52063;45.110;9.870;2024-01-15T03:24:46;22.27;;;15.00;;
65463;SDS011;52063;45.110;9.870;2024-01-15T03:27:11;23.70;;;15.40;;
65463;SDS011;52063;45.110;9.870;2024-01-15T03:29:37;21.67;;;14.40;;
65463;SDS011;52063;45.110;9.870;2024-01-15T03:32:02;23.27;;;15.43;;
65463;SDS011;52063;45.110;9.870;2024-01-15T03:34:28;23.35;;;16.02;;
65463;SDS011;52063;45.110;9.870;2024-01-15T03:36:54;21.47;;;15.37;;
65463;SDS011;52063;45.110;9.870;2024-01-15T03:39:19;23.25;;;15.63;;
65463;SDS011;52063;45.110;9.870;2024-01-15T03:41:45;21.20;;;14.93;;
65463;SDS011;52063;45.110;9.870;2024-01-15T03:44:10;22.00;;;14.60;;
65463;SDS011;52063;45.110;9.870;2024-01-15T03:46:36;22.30;;;15.00;;
65463;SDS011;52063;45.110;9.870;2024-01-15T03:49:01;23.13;;;15.00;;
65463;SDS011;52063;45.110;9.870;2024-01-15T03:51:27;22.33;;;14.90;;
65463;SDS011;52063;45.110;9.870;2024-01-15T03:53:52;21.80;;;15.20;;
65463;SDS011;52063;45.110;9.870;2024-01-15T03:56:18;22.37;;;14.77;;
65463;SDS011;52063;45.110;9.870;2024-01-15T03:58:43;23.23;;;15.70;;
65463;SDS011;52063;45.110;9.870;2024-01-15T04:01:09;23.13;;;15.27;;
65463;SDS011;52063;45.110;9.870;2024-01-15T04:03:35;21.75;;;15.18;;
65463;SDS011;52063;45.110;9.870;2024-01-15T04:06:01;23.33;;;15.27;;
65463;SDS011;52063;45.110;9.870;2024-01-15T04:08:27;23.90;;;15.55;;
65463;SDS011;52063;45.110;9.870;2024-01-15T04:11:23;23.10;;;15.00;;
65463;SDS011;52063;45.110;9.870;2024-01-15T04:13:48;24.88;;;15.00;;
65463;SDS011;52063;45.110;9.870;2024-01-15T04:16:14;22.87;;;15.10;;
65463;SDS011;52063;45.110;9.870;2024-01-15T04:18:39;22.37;;;15.07;;
65463;SDS011;52063;45.110;9.870;2024-01-15T04:21:05;20.38;;;14.95;;
65463;SDS011;52063;45.110;9.870;2024-01-15T04:23:32;23.30;;;15.00;;
65463;SDS011;52063;45.110;9.870;2024-01-15T04:25:58;24.02;;;15.27;;
65463;SDS011;52063;45.110;9.870;2024-01-15T04:28:23;23.48;;;15.07;;
65463;SDS011;52063;45.110;9.870;2024-01-15T04:30:49;23.83;;;15.00;;
65463;SDS011;52063;45.110;9.870;2024-01-15T04:33:14;22.20;;;14.93;;
65463;SDS011;52063;45.110;9.870;2024-01-15T04:35:40;24.08;;;15.63;;
65463;SDS011;52063;45.110;9.870;2024-01-15T04:38:05;21.77;;;15.10;;
65463;SDS011;52063;45.110;9.870;2024-01-15T04:40:31;24.03;;;15.00;;
65463;SDS011;52063;45.110;9.870;2024-01-15T04:42:56;24.85;;;16.05;;
65463;SDS011;52063;45.110;9.870;2024-01-15T04:45:22;22.80;;;15.10;;
65463;SDS011;52063;45.110;9.870;2024-01-15T04:47:54;22.15;;;14.90;;
65463;SDS011;52063;45.110;9.870;2024-01-15T04:50:21;21.25;;;14.43;;
65463;SDS011;52063;45.110;9.870;2024-01-15T04:52:47;21.90;;;14.83;;
65463;SDS011;52063;45.110;9.870;2024-01-15T04:55:13;21.37;;;14.43;;
65463;SDS011;52063;45.110;9.870;2024-01-15T04:57:38;23.65;;;15.27;;
65463;SDS011;52063;45.110;9.870;2024-01-15T05:00:04;22.27;;;15.03;;
65463;SDS011;52063;45.110;9.870;2024-01-15T05:02:30;23.90;;;14.25;;
65463;SDS011;52063;45.110;9.870;2024-01-15T05:04:55;22.93;;;15.63;;
65463;SDS011;52063;45.110;9.870;2024-01-15T05:07:21;20.57;;;13.83;;
65463;SDS011;52063;45.110;9.870;2024-01-15T05:09:47;22.20;;;15.00;;
65463;SDS011;52063;45.110;9.870;2024-01-15T05:12:12;23.80;;;14.83;;
65463;SDS011;52063;45.110;9.870;2024-01-15T05:14:38;21.48;;;14.73;;
65463;SDS011;52063;45.110;9.870;2024-01-15T05:17:04;22.53;;;15.53;;
65463;SDS011;52063;45.110;9.870;2024-01-15T05:19:29;24.65;;;15.35;;
65463;SDS011;52063;45.110;9.870;2024-01-15T05:21:54;21.57;;;14.60;;
65463;SDS011;52063;45.110;9.870;2024-01-15T05:24:20;24.83;;;15.97;;
65463;SDS011;52063;45.110;9.870;2024-01-15T05:26:45;23.93;;;14.83;;
65463;SDS011;52063;45.110;9.870;2024-01-15T05:29:12;21.35;;;14.77;;
65463;SDS011;52063;45.110;9.870;2024-01-15T05:31:37;22.53;;;15.53;;
65463;SDS011;52063;45.110;9.870;2024-01-15T05:34:02;22.88;;;14.63;;
65463;SDS011;52063;45.110;9.870;2024-01-15T05:36:28;23.93;;;14.83;;
65463;SDS011;52063;45.110;9.870;2024-01-15T05:38:53;21.67;;;15.30;;
65463;SDS011;52063;45.110;9.870;2024-01-15T05:41:19;21.77;;;14.48;;
65463;SDS011;52063;45.110;9.870;2024-01-15T05:43:45;24.23;;;15.40;;
65463;SDS011;52063;45.110;9.870;2024-01-15T05:46:11;23.88;;;15.23;;
65463;SDS011;52063;45.110;9.870;2024-01-15T05:48:36;22.80;;;14.70;;
65463;SDS011;52063;45.110;9.870;2024-01-15T05:51:01;21.90;;;14.80;;
65463;SDS011;52063;45.110;9.870;2024-01-15T05:53:27;23.77;;;15.00;;
65463;SDS011;52063;45.110;9.870;2024-01-15T05:55:52;21.80;;;14.13;;
65463;SDS011;52063;45.110;9.870;2024-01-15T05:58:19;21.70;;;14.48;;
65463;SDS011;52063;45.110;9.870;2024-01-15T06:00:44;22.37;;;14.07;;
65463;SDS011;52063;45.110;9.870;2024-01-15T06:03:11;23.00;;;15.05;;
65463;SDS011;52063;45.110;9.870;2024-01-15T06:05:36;20.23;;;13.80;;
65463;SDS011;52063;45.110;9.870;2024-01-15T06:08:02;20.77;;;14.37;;
65463;SDS011;52063;45.110;9.870;2024-01-15T06:10:27;20.38;;;14.00;;
65463;SDS011;52063;45.110;9.870;2024-01-15T06:12:53;22.03;;;14.43;;
65463;SDS011;52063;45.110;9.870;2024-01-15T06:15:18;20.13;;;14.03;;
65463;SDS011;52063;45.110;9.870;2024-01-15T06:17:44;20.98;;;14.55;;
65463;SDS011;52063;45.110;9.870;2024-01-15T06:20:09;22.33;;;13.80;;
65463;SDS011;52063;45.110;9.870;2024-01-15T06:22:35;19.08;;;13.55;;
65463;SDS011;52063;45.110;9.870;2024-01-15T06:25:02;18.37;;;13.17;;
65463;SDS011;52063;45.110;9.870;2024-01-15T06:27:28;22.13;;;13.85;;
65463;SDS011;52063;45.110;9.870;2024-01-15T06:29:53;22.47;;;14.07;;
65463;SDS011;52063;45.110;9.870;2024-01-15T06:32:20;22.67;;;14.18;;
65463;SDS011;52063;45.110;9.870;2024-01-15T06:34:46;21.20;;;14.63;;
65463;SDS011;52063;45.110;9.870;2024-01-15T06:37:11;22.00;;;14.47;;
65463;SDS011;52063;45.110;9.870;2024-01-15T06:39:37;21.10;;;14.23;;
65463;SDS011;52063;45.110;9.870;2024-01-15T06:42:02;19.60;;;13.63;;
65463;SDS011;52063;45.110;9.870;2024-01-15T06:44:28;22.73;;;14.15;;
65463;SDS011;52063;45.110;9.870;2024-01-15T06:46:53;18.80;;;13.23;;
65463;SDS011;52063;45.110;9.870;2024-01-15T06:49:22;19.67;;;13.80;;
65463;SDS011;52063;45.110;9.870;2024-01-15T06:51:48;21.20;;;14.55;;
65463;SDS011;52063;45.110;9.870;2024-01-15T06:54:13;19.30;;;13.33;;
65463;SDS011;52063;45.110;9.870;2024-01-15T06:56:39;19.87;;;13.03;;
65463;SDS011;52063;45.110;9.870;2024-01-15T06:59:04;19.77;;;13.43;;
65463;SDS011;52063;45.110;9.870;2024-01-15T07:01:30;19.08;;;13.32;;
65463;SDS011;52063;45.110;9.870;2024-01-15T07:03:55;20.13;;;13.37;;
65463;SDS011;52063;45.110;9.870;2024-01-15T07:06:20;17.77;;;12.97;;
65463;SDS011;52063;45.110;9.870;2024-01-15T07:08:46;19.10;;;13.33;;
65463;SDS011;52063;45.110;9.870;2024-01-15T07:11:11;19.35;;;12.70;;
65463;SDS011;52063;45.110;9.870;2024-01-15T07:13:37;18.70;;;12.70;;
65463;SDS011;52063;45.110;9.870;2024-01-15T07:16:03;17.27;;;12.88;;
65463;SDS011;52063;45.110;9.870;2024-01-15T07:18:28;21.70;;;13.60;;
65463;SDS011;52063;45.110;9.870;2024-01-15T07:20:54;20.13;;;14.10;;
65463;SDS011;52063;45.110;9.870;2024-01-15T07:23:19;18.90;;;13.37;;
65463;SDS011;52063;45.110;9.870;2024-01-15T07:25:45;21.77;;;13.90;;
65463;SDS011;52063;45.110;9.870;2024-01-15T07:28:10;18.73;;;12.80;;
65463;SDS011;52063;45.110;9.870;2024-01-15T07:30:36;17.73;;;12.77;;
65463;SDS011;52063;45.110;9.870;2024-01-15T07:33:03;18.15;;;12.73;;
65463;SDS011;52063;45.110;9.870;2024-01-15T07:35:29;21.23;;;13.60;;
65463;SDS011;52063;45.110;9.870;2024-01-15T07:37:55;17.80;;;13.13;;
65463;SDS011;52063;45.110;9.870;2024-01-15T07:40:20;18.10;;;12.50;;
65463;SDS011;52063;45.110;9.870;2024-01-15T07:42:46;19.60;;;12.88;;
65463;SDS011;52063;45.110;9.870;2024-01-15T07:45:12;18.97;;;13.03;;
65463;SDS011;52063;45.110;9.870;2024-01-15T07:47:38;18.05;;;12.80;;
65463;SDS011;52063;45.110;9.870;2024-01-15T07:50:03;20.30;;;13.87;;
65463;SDS011;52063;45.110;9.870;2024-01-15T07:52:30;19.25;;;12.73;;
65463;SDS011;52063;45.110;9.870;2024-01-15T07:54:56;18.23;;;12.90;;
65463;SDS011;52063;45.110;9.870;2024-01-15T07:57:21;16.23;;;12.27;;
65463;SDS011;52063;45.110;9.870;2024-01-15T07:59:48;20.60;;;13.48;;
65463;SDS011;52063;45.110;9.870;2024-01-15T08:02:13;18.03;;;12.80;;
65463;SDS011;52063;45.110;9.870;2024-01-15T08:04:39;19.10;;;12.77;;
65463;SDS011;52063;45.110;9.870;2024-01-15T08:07:04;19.43;;;12.20;;
65463;SDS011;52063;45.110;9.870;2024-01-15T08:09:32;17.90;;;12.73;;
65463;SDS011;52063;45.110;9.870;2024-01-15T08:11:57;19.17;;;12.80;;
65463;SDS011;52063;45.110;9.870;2024-01-15T08:14:23;17.90;;;12.48;;
65463;SDS011;52063;45.110;9.870;2024-01-15T08:16:49;18.00;;;12.20;;
65463;SDS011;52063;45.110;9.870;2024-01-15T08:19:14;17.47;;;12.60;;
65463;SDS011;52063;45.110;9.870;2024-01-15T08:21:40;19.13;;;13.00;;
65463;SDS011;52063;45.110;9.870;2024-01-15T08:24:05;18.13;;;12.47;;
65463;SDS011;52063;45.110;9.870;2024-01-15T08:26:31;17.00;;;11.68;;
65463;SDS011;52063;45.110;9.870;2024-01-15T08:28:57;17.27;;;12.52;;
65463;SDS011;52063;45.110;9.870;2024-01-15T08:31:23;19.33;;;12.77;;
65463;SDS011;52063;45.110;9.870;2024-01-15T08:33:49;18.15;;;12.82;;
65463;SDS011;52063;45.110;9.870;2024-01-15T08:36:14;18.50;;;12.73;;
65463;SDS011;52063;45.110;9.870;2024-01-15T08:38:40;17.02;;;12.02;;
65463;SDS011;52063;45.110;9.870;2024-01-15T08:41:05;15.80;;;12.00;;
65463;SDS011;52063;45.110;9.870;2024-01-15T08:43:31;18.73;;;13.27;;
65463;SDS011;52063;45.110;9.870;2024-01-15T08:45:56;17.67;;;12.30;;
65463;SDS011;52063;45.110;9.870;2024-01-15T08:48:22;21.10;;;12.57;;
65463;SDS011;52063;45.110;9.870;2024-01-15T08:50:48;16.60;;;11.98;;
65463;SDS011;52063;45.110;9.870;2024-01-15T08:53:14;16.07;;;11.53;;
65463;SDS011;52063;45.110;9.870;2024-01-15T08:55:40;18.57;;;12.40;;
65463;SDS011;52063;45.110;9.870;2024-01-15T08:58:07;15.80;;;11.45;;
65463;SDS011;52063;45.110;9.870;2024-01-15T09:00:33;17.40;;;12.55;;
65463;SDS011;52063;45.110;9.870;2024-01-15T09:02:59;51.17;;;33.07;;
65463;SDS011;52063;45.110;9.870;2024-01-15T09:05:24;54.03;;;35.25;;
65463;SDS011;52063;45.110;9.870;2024-01-15T09:07:50;63.07;;;38.50;;
65463;SDS011;52063;45.110;9.870;2024-01-15T09:10:17;72.00;;;44.65;;
65463;SDS011;52063;45.110;9.870;2024-01-15T09:12:43;85.90;;;48.53;;
65463;SDS011;52063;45.110;9.870;2024-01-15T09:15:08;78.00;;;46.27;;
65463;SDS011;52063;45.110;9.870;2024-01-15T09:17:34;80.05;;;43.78;;
65463;SDS011;52063;45.110;9.870;2024-01-15T09:19:59;69.27;;;44.27;;
65463;SDS011;52063;45.110;9.870;2024-01-15T09:22:25;71.70;;;44.20;;
65463;SDS011;52063;45.110;9.870;2024-01-15T09:24:51;67.53;;;41.08;;
65463;SDS011;52063;45.110;9.870;2024-01-15T09:27:16;64.60;;;39.80;;
65463;SDS011;52063;45.110;9.870;2024-01-15T09:29:42;71.22;;;40.03;;
65463;SDS011;52063;45.110;9.870;2024-01-15T09:32:09;65.90;;;39.70;;
65463;SDS011;52063;45.110;9.870;2024-01-15T09:34:34;71.57;;;42.65;;
65463;SDS011;52063;45.110;9.870;2024-01-15T09:37:00;69.93;;;39.47;;
65463;SDS011;52063;45.110;9.870;2024-01-15T09:39:26;60.78;;;36.45;;
65463;SDS011;52063;45.110;9.870;2024-01-15T09:41:52;56.93;;;33.17;;
65463;SDS011;52063;45.110;9.870;2024-01-15T09:44:18;61.45;;;34.40;;
65463;SDS011;52063;45.110;9.870;2024-01-15T09:46:44;56.35;;;33.53;;
65463;SDS011;52063;45.110;9.870;2024-01-15T09:49:10;56.88;;;33.58;;
65463;SDS011;52063;45.110;9.870;2024-01-15T09:51:36;54.93;;;32.27;;
65463;SDS011;52063;45.110;9.870;2024-01-15T09:54:02;52.80;;;31.77;;
65463;SDS011;52063;45.110;9.870;2024-01-15T09:56:29;53.75;;;31.90;;
65463;SDS011;52063;45.110;9.870;2024-01-15T09:58:56;51.90;;;32.80;;
65463;SDS011;52063;45.110;9.870;2024-01-15T10:01:22;50.43;;;30.87;;
65463;SDS011;52063;45.110;9.870;2024-01-15T10:03:48;51.97;;;31.83;;
65463;SDS011;52063;45.110;9.870;2024-01-15T10:06:15;48.00;;;29.93;;
65463;SDS011;52063;45.110;9.870;2024-01-15T10:08:47;47.28;;;30.50;;
65463;SDS011;52063;45.110;9.870;2024-01-15T10:11:14;49.90;;;29.92;;
65463;SDS011;52063;45.110;9.870;2024-01-15T10:13:39;46.87;;;29.30;;
65463;SDS011;52063;45.110;9.870;2024-01-15T10:16:05;46.77;;;29.13;;
65463;SDS011;52063;45.110;9.870;2024-01-15T10:18:31;48.47;;;30.65;;
65463;SDS011;52063;45.110;9.870;2024-01-15T10:20:57;49.92;;;31.33;;
65463;SDS011;52063;45.110;9.870;2024-01-15T10:23:23;47.97;;;29.48;;
65463;SDS011;52063;45.110;9.870;2024-01-15T10:25:49;48.83;;;30.47;;
65463;SDS011;52063;45.110;9.870;2024-01-15T10:28:16;48.88;;;30.58;;
65463;SDS011;52063;45.110;9.870;2024-01-15T10:30:44;46.08;;;29.38;;
65463;SDS011;52063;45.110;9.870;2024-01-15T10:33:09;48.33;;;28.63;;
65463;SDS011;52063;45.110;9.870;2024-01-15T10:35:35;46.70;;;29.63;;
65463;SDS011;52063;45.110;9.870;2024-01-15T10:38:01;46.50;;;28.87;;
65463;SDS011;52063;45.110;9.870;2024-01-15T10:40:27;47.13;;;29.67;;
65463;SDS011;52063;45.110;9.870;2024-01-15T10:42:53;45.40;;;28.75;;
65463;SDS011;52063;45.110;9.870;2024-01-15T10:45:19;44.67;;;28.97;;
65463;SDS011;52063;45.110;9.870;2024-01-15T10:47:44;44.75;;;28.08;;
65463;SDS011;52063;45.110;9.870;2024-01-15T10:50:11;45.90;;;29.00;;
65463;SDS011;52063;45.110;9.870;2024-01-15T10:52:37;44.50;;;28.17;;
65463;SDS011;52063;45.110;9.870;2024-01-15T10:55:06;47.00;;;28.80;;
65463;SDS011;52063;45.110;9.870;2024-01-15T10:57:34;44.28;;;27.35;;
65463;SDS011;52063;45.110;9.870;2024-01-15T11:00:00;40.75;;;27.60;;
65463;SDS011;52063;45.110;9.870;2024-01-15T11:02:29;42.73;;;26.57;;
65463;SDS011;52063;45.110;9.870;2024-01-15T11:04:55;44.65;;;27.00;;
65463;SDS011;52063;45.110;9.870;2024-01-15T11:07:21;42.15;;;25.98;;
65463;SDS011;52063;45.110;9.870;2024-01-15T11:09:47;43.40;;;27.60;;
65463;SDS011;52063;45.110;9.870;2024-01-15T11:12:13;40.22;;;26.52;;
65463;SDS011;52063;45.110;9.870;2024-01-15T11:14:44;42.28;;;28.00;;
65463;SDS011;52063;45.110;9.870;2024-01-15T11:17:11;42.20;;;27.25;;
65463;SDS011;52063;45.110;9.870;2024-01-15T11:22:07;44.47;;;27.08;;
65463;SDS011;52063;45.110;9.870;2024-01-15T11:24:42;40.38;;;25.83;;
65463;SDS011;52063;45.110;9.870;2024-01-15T11:27:08;44.55;;;24.95;;
65463;SDS011;52063;45.110;9.870;2024-01-15T11:29:34;44.40;;;26.30;;
65463;SDS011;52063;45.110;9.870;2024-01-15T11:32:03;43.92;;;26.90;;
65463;SDS011;52063;45.110;9.870;2024-01-15T11:34:53;45.50;;;26.60;;
65463;SDS011;52063;45.110;9.870;2024-01-15T11:37:23;40.00;;;25.92;;
65463;SDS011;52063;45.110;9.870;2024-01-15T11:39:53;44.08;;;26.52;;
65463;SDS011;52063;45.110;9.870;2024-01-15T11:42:21;41.80;;;25.50;;
65463;SDS011;52063;45.110;9.870;2024-01-15T11:44:47;42.83;;;27.05;;
65463;SDS011;52063;45.110;9.870;2024-01-15T11:47:13;40.83;;;25.92;;
65463;SDS011;52063;45.110;9.870;2024-01-15T11:52:31;38.85;;;24.17;;
65463;SDS011;52063;45.110;9.870;2024-01-15T11:57:51;39.70;;;24.73;;
65463;SDS011;52063;45.110;9.870;2024-01-15T12:00:17;37.70;;;24.05;;
65463;SDS011;52063;45.110;9.870;2024-01-15T12:02:44;38.70;;;24.13;;
65463;SDS011;52063;45.110;9.870;2024-01-15T12:05:11;37.95;;;24.27;;
65463;SDS011;52063;45.110;9.870;2024-01-15T12:07:40;43.63;;;25.00;;
65463;SDS011;52063;45.110;9.870;2024-01-15T12:10:12;36.05;;;23.35;;
65463;SDS011;52063;45.110;9.870;2024-01-15T12:15:20;39.13;;;23.77;;
65463;SDS011;52063;45.110;9.870;2024-01-15T12:17:46;37.05;;;24.38;;
65463;SDS011;52063;45.110;9.870;2024-01-15T12:20:13;37.63;;;24.15;;
65463;SDS011;52063;45.110;9.870;2024-01-15T12:22:38;37.27;;;24.00;;
65463;SDS011;52063;45.110;9.870;2024-01-15T12:25:04;39.05;;;23.58;;
65463;SDS011;52063;45.110;9.870;2024-01-15T12:27:30;37.25;;;23.20;;
65463;SDS011;52063;45.110;9.870;2024-01-15T12:29:57;38.53;;;22.73;;
65463;SDS011;52063;45.110;9.870;2024-01-15T12:32:24;37.03;;;23.85;;
65463;SDS011;52063;45.110;9.870;2024-01-15T12:34:50;35.60;;;23.02;;
65463;SDS011;52063;45.110;9.870;2024-01-15T12:37:18;36.23;;;22.77;;
65463;SDS011;52063;45.110;9.870;2024-01-15T12:39:44;34.97;;;22.10;;
65463;SDS011;52063;45.110;9.870;2024-01-15T12:42:10;38.78;;;23.88;;
65463;SDS011;52063;45.110;9.870;2024-01-15T12:44:36;36.37;;;23.07;;
65463;SDS011;52063;45.110;9.870;2024-01-15T12:47:03;36.88;;;23.38;;
65463;SDS011;52063;45.110;9.870;2024-01-15T12:49:30;32.38;;;22.17;;
65463;SDS011;52063;45.110;9.870;2024-01-15T12:51:58;34.93;;;22.53;;
65463;SDS011;52063;45.110;9.870;2024-01-15T12:54:25;34.55;;;22.75;;
65463;SDS011;52063;45.110;9.870;2024-01-15T12:56:51;33.80;;;22.40;;
65463;SDS011;52063;45.110;9.870;2024-01-15T12:59:17;37.35;;;23.48;;
65463;SDS011;52063;45.110;9.870;2024-01-15T13:01:43;33.53;;;21.77;;
65463;SDS011;52063;45.110;9.870;2024-01-15T13:04:09;32.38;;;21.75;;
65463;SDS011;52063;45.110;9.870;2024-01-15T13:06:35;39.65;;;23.13;;
65463;SDS011;52063;45.110;9.870;2024-01-15T13:09:02;34.70;;;22.10;;
65463;SDS011;52063;45.110;9.870;2024-01-15T13:11:30;37.43;;;22.63;;
65463;SDS011;52063;45.110;9.870;2024-01-15T13:13:57;32.72;;;21.58;;
65463;SDS011;52063;45.110;9.870;2024-01-15T13:16:22;34.35;;;21.52;;
65463;SDS011;52063;45.110;9.870;2024-01-15T13:18:48;33.37;;;21.67;;
65463;SDS011;52063;45.110;9.870;2024-01-15T13:21:15;32.03;;;20.75;;
65463;SDS011;52063;45.110;9.870;2024-01-15T13:23:40;34.15;;;21.38;;
65463;SDS011;52063;45.110;9.870;2024-01-15T13:26:06;31.57;;;21.33;;
65463;SDS011;52063;45.110;9.870;2024-01-15T13:28:32;33.90;;;21.63;;
65463;SDS011;52063;45.110;9.870;2024-01-15T13:30:58;32.33;;;21.03;;
65463;SDS011;52063;45.110;9.870;2024-01-15T13:33:23;31.73;;;20.70;;
65463;SDS011;52063;45.110;9.870;2024-01-15T13:35:49;34.80;;;21.20;;
65463;SDS011;52063;45.110;9.870;2024-01-15T13:38:17;30.75;;;20.60;;
65463;SDS011;52063;45.110;9.870;2024-01-15T13:40:43;32.97;;;21.07;;
65463;SDS011;52063;45.110;9.870;2024-01-15T13:43:10;32.25;;;20.40;;
65463;SDS011;52063;45.110;9.870;2024-01-15T13:45:36;29.08;;;19.27;;
65463;SDS011;52063;45.110;9.870;2024-01-15T13:48:02;33.03;;;20.05;;
65463;SDS011;52063;45.110;9.870;2024-01-15T13:50:31;33.13;;;20.50;;
65463;SDS011;52063;45.110;9.870;2024-01-15T13:52:56;32.83;;;20.37;;
65463;SDS011;52063;45.110;9.870;2024-01-15T13:55:22;29.77;;;20.80;;
65463;SDS011;52063;45.110;9.870;2024-01-15T13:57:48;30.30;;;19.87;;
65463;SDS011;52063;45.110;9.870;2024-01-15T14:00:13;29.48;;;19.80;;
65463;SDS011;52063;45.110;9.870;2024-01-15T14:02:43;30.55;;;20.00;;
65463;SDS011;52063;45.110;9.870;2024-01-15T14:05:09;30.80;;;19.70;;
65463;SDS011;52063;45.110;9.870;2024-01-15T14:07:37;29.63;;;19.38;;
65463;SDS011;52063;45.110;9.870;2024-01-15T14:10:06;28.98;;;19.25;;
65463;SDS011;52063;45.110;9.870;2024-01-15T14:12:33;29.73;;;19.25;;
65463;SDS011;52063;45.110;9.870;2024-01-15T14:14:59;31.07;;;19.77;;
65463;SDS011;52063;45.110;9.870;2024-01-15T14:17:26;28.23;;;19.00;;
65463;SDS011;52063;45.110;9.870;2024-01-15T14:19:52;29.52;;;19.30;;
65463;SDS011;52063;45.110;9.870;2024-01-15T14:22:17;28.60;;;18.73;;
65463;SDS011;52063;45.110;9.870;2024-01-15T14:24:43;33.90;;;19.03;;